sensor_id;sensor_type;location;lat;lon;timestamp;temperature;humidity
6581;DHT22;3324;50.796;7.228;2022-12-20T00:02:09;9.60;99.90
6581;DHT22;3324;50.796;7.228;2022-12-20T00:04:35;9.50;99.90
6581;DHT22;3324;50.796;7.228;2022-12-20T00:07:01;9.50;99.90
6581;DHT22;3324;50.796;7.228;2022-12-20T00:09:26;9.50;99.90
6581;DHT22;3324;50.796;7.228;2022-12-20T00:11:52;9.60;99.90
6581;DHT22;3324;50.796;7.228;2022-12-20T00:14:18;9.60;99.90
6581;DHT22;3324;50.796;7.228;2022-12-20T00:16:43;9.60;99.90
6581;DHT22;3324;50.796;7.228;2022-12-20T00:19:10;9.50;99.90
6581;DHT22;3324;50.796;7.228;2022-12-20T00:21:36;9.50;99.90
6581;DHT22;3324;50.796;7.228;2022-12-20T00:24:04;9.50;99.90
6581;DHT22;3324;50.796;7.228;2022-12-20T00:26:32;9.40;99.90
6581;DHT22;3324;50.796;7.228;2022-12-20T00:28:58;9.40;99.90
6581;DHT22;3324;50.796;7.228;2022-12-20T00:31:26;9.30;99.90
6581;DHT22;3324;50.796;7.228;2022-12-20T00:33:54;9.30;99.90
6581;DHT22;3324;50.796;7.228;2022-12-20T00:36:21;9.40;99.90
6581;DHT22;3324;50.796;7.228;2022-12-20T00:38:48;9.40;99.90
6581;DHT22;3324;50.796;7.228;2022-12-20T00:41:18;9.40;99.90
6581;DHT22;3324;50.796;7.228;2022-12-20T00:43:45;9.40;99.90
6581;DHT22;3324;50.796;7.228;2022-12-20T00:46:11;9.40;99.90
6581;DHT22;3324;50.796;7.228;2022-12-20T00:48:37;9.40;99.90
6581;DHT22;3324;50.796;7.228;2022-12-20T00:51:06;9.30;99.90
6581;DHT22;3324;50.796;7.228;2022-12-20T00:53:32;9.30;99.90
6581;DHT22;3324;50.796;7.228;2022-12-20T00:55:58;9.20;99.90
6581;DHT22;3324;50.796;7.228;2022-12-20T00:58:24;9.20;99.90
6581;DHT22;3324;50.796;7.228;2022-12-20T01:00:50;9.30;99.90
6581;DHT22;3324;50.796;7.228;2022-12-20T01:03:16;9.20;99.90
6581;DHT22;3324;50.796;7.228;2022-12-20T01:05:57;9.30;99.90
6581;DHT22;3324;50.796;7.228;2022-12-20T01:08:24;9.20;99.90
6581;DHT22;3324;50.796;7.228;2022-12-20T01:11:14;9.20;99.90
6581;DHT22;3324;50.796;7.228;2022-12-20T01:13:43;9.20;99.90
6581;DHT22;3324;50.796;7.228;2022-12-20T01:16:16;9.20;99.90
6581;DHT22;3324;50.796;7.228;2022-12-20T01:18:42;9.20;99.90
6581;DHT22;3324;50.796;7.228;2022-12-20T01:21:11;9.10;99.90
6581;DHT22;3324;50.796;7.228;2022-12-20T01:23:37;9.10;99.90
6581;DHT22;3324;50.796;7.228;2022-12-20T01:26:06;9.10;99.90
6581;DHT22;3324;50.796;7.228;2022-12-20T01:28:34;9.10;99.90
6581;DHT22;3324;50.796;7.228;2022-12-20T01:31:00;9.10;99.90
6581;DHT22;3324;50.796;7.228;2022-12-20T01:33:26;9.10;99.90
6581;DHT22;3324;50.796;7.228;2022-12-20T01:36:00;9.10;99.90
6581;DHT22;3324;50.796;7.228;2022-12-20T01:38:27;9.10;99.90
6581;DHT22;3324;50.796;7.228;2022-12-20T01:40:53;9.10;99.90
6581;DHT22;3324;50.796;7.228;2022-12-20T01:43:19;9.00;99.90
6581;DHT22;3324;50.796;7.228;2022-12-20T01:45:46;9.00;99.90
6581;DHT22;3324;50.796;7.228;2022-12-20T01:48:23;9.10;99.90
6581;DHT22;3324;50.796;7.228;2022-12-20T01:50:50;9.10;99.90
6581;DHT22;3324;50.796;7.228;2022-12-20T01:53:18;9.10;99.90
6581;DHT22;3324;50.796;7.228;2022-12-20T01:55:46;9.10;99.90
6581;DHT22;3324;50.796;7.228;2022-12-20T01:58:13;9.10;99.90
6581;DHT22;3324;50.796;7.228;2022-12-20T02:00:40;9.00;99.90
6581;DHT22;3324;50.796;7.228;2022-12-20T02:03:09;9.10;99.90
6581;DHT22;3324;50.796;7.228;2022-12-20T02:05:38;9.00;99.90
6581;DHT22;3324;50.796;7.228;2022-12-20T02:08:05;9.10;99.90
6581;DHT22;3324;50.796;7.228;2022-12-20T02:10:50;9.10;99.90
6581;DHT22;3324;50.796;7.228;2022-12-20T02:15:57;9.00;99.90
6581;DHT22;3324;50.796;7.228;2022-12-20T02:21:11;9.10;99.90
6581;DHT22;3324;50.796;7.228;2022-12-20T02:32:20;9.10;99.90
6581;DHT22;3324;50.796;7.228;2022-12-20T02:34:47;9.10;99.90
6581;DHT22;3324;50.796;7.228;2022-12-20T02:37:12;9.10;99.90
6581;DHT22;3324;50.796;7.228;2022-12-20T02:39:40;9.10;99.90
6581;DHT22;3324;50.796;7.228;2022-12-20T02:42:09;9.10;99.90
6581;DHT22;3324;50.796;7.228;2022-12-20T02:44:38;9.10;99.90
6581;DHT22;3324;50.796;7.228;2022-12-20T02:47:28;9.10;99.90
6581;DHT22;3324;50.796;7.228;2022-12-20T02:49:55;9.10;99.90
6581;DHT22;3324;50.796;7.228;2022-12-20T02:52:23;9.10;99.90
6581;DHT22;3324;50.796;7.228;2022-12-20T02:54:52;9.10;99.90
6581;DHT22;3324;50.796;7.228;2022-12-20T02:57:24;9.10;99.90
6581;DHT22;3324;50.796;7.228;2022-12-20T03:02:23;9.10;99.90
6581;DHT22;3324;50.796;7.228;2022-12-20T03:04:50;9.00;99.90
6581;DHT22;3324;50.796;7.228;2022-12-20T03:07:15;9.10;99.90
6581;DHT22;3324;50.796;7.228;2022-12-20T03:09:43;9.10;99.90
6581;DHT22;3324;50.796;7.228;2022-12-20T03:12:10;9.00;99.90
6581;DHT22;3324;50.796;7.228;2022-12-20T03:14:38;9.10;99.90
6581;DHT22;3324;50.796;7.228;2022-12-20T03:17:04;9.00;99.90
6581;DHT22;3324;50.796;7.228;2022-12-20T03:19:30;9.00;99.90
6581;DHT22;3324;50.796;7.228;2022-12-20T03:21:56;9.10;99.90
6581;DHT22;3324;50.796;7.228;2022-12-20T03:24:21;9.10;99.90
6581;DHT22;3324;50.796;7.228;2022-12-20T03:26:47;9.10;99.90
6581;DHT22;3324;50.796;7.228;2022-12-20T03:29:13;9.10;99.90
6581;DHT22;3324;50.796;7.228;2022-12-20T03:31:38;9.00;99.90
6581;DHT22;3324;50.796;7.228;2022-12-20T03:34:04;9.00;99.90
6581;DHT22;3324;50.796;7.228;2022-12-20T03:36:30;9.10;99.90
6581;DHT22;3324;50.796;7.228;2022-12-20T03:38:56;9.10;99.90
6581;DHT22;3324;50.796;7.228;2022-12-20T03:41:22;9.10;99.90
6581;DHT22;3324;50.796;7.228;2022-12-20T03:43:48;9.10;99.90
6581;DHT22;3324;50.796;7.228;2022-12-20T03:46:14;9.10;99.90
6581;DHT22;3324;50.796;7.228;2022-12-20T03:48:40;9.10;99.90
6581;DHT22;3324;50.796;7.228;2022-12-20T03:51:06;9.10;99.90
6581;DHT22;3324;50.796;7.228;2022-12-20T03:53:32;9.10;99.90
6581;DHT22;3324;50.796;7.228;2022-12-20T03:55:57;9.10;99.90
6581;DHT22;3324;50.796;7.228;2022-12-20T03:58:23;9.10;99.90
6581;DHT22;3324;50.796;7.228;2022-12-20T04:00:48;9.10;99.90
6581;DHT22;3324;50.796;7.228;2022-12-20T04:03:14;9.10;99.90
6581;DHT22;3324;50.796;7.228;2022-12-20T04:05:40;9.10;99.90
6581;DHT22;3324;50.796;7.228;2022-12-20T04:08:05;9.10;99.90
6581;DHT22;3324;50.796;7.228;2022-12-20T04:10:31;9.10;99.90
6581;DHT22;3324;50.796;7.228;2022-12-20T04:12:56;9.10;99.90
6581;DHT22;3324;50.796;7.228;2022-12-20T04:15:22;9.10;99.90
6581;DHT22;3324;50.796;7.228;2022-12-20T04:17:48;9.10;99.90
6581;DHT22;3324;50.796;7.228;2022-12-20T04:20:15;9.10;99.90
6581;DHT22;3324;50.796;7.228;2022-12-20T04:22:48;9.10;99.90
6581;DHT22;3324;50.796;7.228;2022-12-20T04:25:16;9.10;99.90
6581;DHT22;3324;50.796;7.228;2022-12-20T04:27:42;9.10;99.90
6581;DHT22;3324;50.796;7.228;2022-12-20T04:30:08;9.10;99.90
6581;DHT22;3324;50.796;7.228;2022-12-20T04:32:34;9.10;99.90
6581;DHT22;3324;50.796;7.228;2022-12-20T04:35:00;9.10;99.90
6581;DHT22;3324;50.796;7.228;2022-12-20T04:37:25;9.10;99.90
6581;DHT22;3324;50.796;7.228;2022-12-20T04:39:51;9.10;99.90
6581;DHT22;3324;50.796;7.228;2022-12-20T04:42:17;9.10;99.90
6581;DHT22;3324;50.796;7.228;2022-12-20T04:44:42;9.00;99.90
6581;DHT22;3324;50.796;7.228;2022-12-20T04:47:08;9.00;99.90
6581;DHT22;3324;50.796;7.228;2022-12-20T04:49:34;9.00;99.90
6581;DHT22;3324;50.796;7.228;2022-12-20T04:52:00;9.00;99.90
6581;DHT22;3324;50.796;7.228;2022-12-20T04:54:46;9.00;99.90
6581;DHT22;3324;50.796;7.228;2022-12-20T04:57:12;9.00;99.90
6581;DHT22;3324;50.796;7.228;2022-12-20T04:59:38;9.00;99.90
6581;DHT22;3324;50.796;7.228;2022-12-20T05:02:04;9.00;99.90
6581;DHT22;3324;50.796;7.228;2022-12-20T05:04:29;9.00;99.90
6581;DHT22;3324;50.796;7.228;2022-12-20T05:06:55;9.10;99.90
6581;DHT22;3324;50.796;7.228;2022-12-20T05:09:21;9.10;99.90
6581;DHT22;3324;50.796;7.228;2022-12-20T05:11:46;9.10;99.90
6581;DHT22;3324;50.796;7.228;2022-12-20T05:14:12;9.10;99.90
6581;DHT22;3324;50.796;7.228;2022-12-20T05:16:38;9.10;99.90
6581;DHT22;3324;50.796;7.228;2022-12-20T05:19:03;9.10;99.90
6581;DHT22;3324;50.796;7.228;2022-12-20T05:21:29;9.10;99.90
6581;DHT22;3324;50.796;7.228;2022-12-20T05:24:13;9.10;99.90
6581;DHT22;3324;50.796;7.228;2022-12-20T05:26:57;9.00;99.90
6581;DHT22;3324;50.796;7.228;2022-12-20T05:29:23;9.10;99.90
6581;DHT22;3324;50.796;7.228;2022-12-20T05:31:48;9.10;99.90
6581;DHT22;3324;50.796;7.228;2022-12-20T05:34:14;9.10;99.90
6581;DHT22;3324;50.796;7.228;2022-12-20T05:36:40;9.00;99.90
6581;DHT22;3324;50.796;7.228;2022-12-20T05:39:05;9.00;99.90
6581;DHT22;3324;50.796;7.228;2022-12-20T05:41:31;9.10;99.90
6581;DHT22;3324;50.796;7.228;2022-12-20T05:43:57;9.10;99.90
6581;DHT22;3324;50.796;7.228;2022-12-20T05:46:22;9.10;99.90
6581;DHT22;3324;50.796;7.228;2022-12-20T05:48:48;9.00;99.90
6581;DHT22;3324;50.796;7.228;2022-12-20T05:51:13;9.10;99.90
6581;DHT22;3324;50.796;7.228;2022-12-20T05:53:39;9.10;99.90
6581;DHT22;3324;50.796;7.228;2022-12-20T05:56:04;9.00;99.90
6581;DHT22;3324;50.796;7.228;2022-12-20T05:58:30;9.10;99.90
6581;DHT22;3324;50.796;7.228;2022-12-20T06:00:59;9.00;99.90
6581;DHT22;3324;50.796;7.228;2022-12-20T06:03:25;9.00;99.90
6581;DHT22;3324;50.796;7.228;2022-12-20T06:05:50;9.10;99.90
6581;DHT22;3324;50.796;7.228;2022-12-20T06:08:16;9.10;99.90
6581;DHT22;3324;50.796;7.228;2022-12-20T06:10:41;9.10;99.90
6581;DHT22;3324;50.796;7.228;2022-12-20T06:13:11;9.10;99.90
6581;DHT22;3324;50.796;7.228;2022-12-20T06:15:36;9.10;99.90
6581;DHT22;3324;50.796;7.228;2022-12-20T06:18:02;9.10;99.90
6581;DHT22;3324;50.796;7.228;2022-12-20T06:20:28;9.10;99.90
6581;DHT22;3324;50.796;7.228;2022-12-20T06:22:54;9.10;99.90
6581;DHT22;3324;50.796;7.228;2022-12-20T06:25:19;9.10;99.90
6581;DHT22;3324;50.796;7.228;2022-12-20T06:27:45;9.10;99.90
6581;DHT22;3324;50.796;7.228;2022-12-20T06:30:11;9.10;99.90
6581;DHT22;3324;50.796;7.228;2022-12-20T06:32:37;9.20;99.90
6581;DHT22;3324;50.796;7.228;2022-12-20T06:35:04;9.10;99.90
6581;DHT22;3324;50.796;7.228;2022-12-20T06:37:30;9.10;99.90
6581;DHT22;3324;50.796;7.228;2022-12-20T06:39:56;9.20;99.90
6581;DHT22;3324;50.796;7.228;2022-12-20T06:42:23;9.20;99.90
6581;DHT22;3324;50.796;7.228;2022-12-20T06:44:48;9.10;99.90
6581;DHT22;3324;50.796;7.228;2022-12-20T06:47:14;9.20;99.90
6581;DHT22;3324;50.796;7.228;2022-12-20T06:49:39;9.30;99.90
6581;DHT22;3324;50.796;7.228;2022-12-20T06:52:05;9.30;99.90
6581;DHT22;3324;50.796;7.228;2022-12-20T06:54:31;9.30;99.90
6581;DHT22;3324;50.796;7.228;2022-12-20T06:56:56;9.20;99.90
6581;DHT22;3324;50.796;7.228;2022-12-20T06:59:22;9.20;99.90
6581;DHT22;3324;50.796;7.228;2022-12-20T07:01:47;9.20;99.90
6581;DHT22;3324;50.796;7.228;2022-12-20T07:04:13;9.20;99.90
6581;DHT22;3324;50.796;7.228;2022-12-20T07:06:38;9.20;99.90
6581;DHT22;3324;50.796;7.228;2022-12-20T07:09:04;9.20;99.90
6581;DHT22;3324;50.796;7.228;2022-12-20T07:11:30;9.20;99.90
6581;DHT22;3324;50.796;7.228;2022-12-20T07:13:56;9.20;99.90
6581;DHT22;3324;50.796;7.228;2022-12-20T07:16:22;9.30;99.90
6581;DHT22;3324;50.796;7.228;2022-12-20T07:18:49;9.20;99.90
6581;DHT22;3324;50.796;7.228;2022-12-20T07:21:15;9.20;99.90
6581;DHT22;3324;50.796;7.228;2022-12-20T07:23:41;9.20;99.90
6581;DHT22;3324;50.796;7.228;2022-12-20T07:26:08;9.20;99.90
6581;DHT22;3324;50.796;7.228;2022-12-20T07:28:34;9.20;99.90
6581;DHT22;3324;50.796;7.228;2022-12-20T07:31:01;9.20;99.90
6581;DHT22;3324;50.796;7.228;2022-12-20T07:33:27;9.20;99.90
6581;DHT22;3324;50.796;7.228;2022-12-20T07:35:59;9.20;99.90
6581;DHT22;3324;50.796;7.228;2022-12-20T07:38:25;9.20;99.90
6581;DHT22;3324;50.796;7.228;2022-12-20T07:40:51;9.10;99.90
6581;DHT22;3324;50.796;7.228;2022-12-20T07:43:16;9.10;99.90
6581;DHT22;3324;50.796;7.228;2022-12-20T07:45:42;9.10;99.90
6581;DHT22;3324;50.796;7.228;2022-12-20T07:48:07;9.10;99.90
6581;DHT22;3324;50.796;7.228;2022-12-20T07:50:33;9.10;99.90
6581;DHT22;3324;50.796;7.228;2022-12-20T07:53:01;9.10;99.90
6581;DHT22;3324;50.796;7.228;2022-12-20T07:55:29;9.10;99.90
6581;DHT22;3324;50.796;7.228;2022-12-20T07:58:00;9.10;99.90
6581;DHT22;3324;50.796;7.228;2022-12-20T08:00:28;9.10;99.90
6581;DHT22;3324;50.796;7.228;2022-12-20T08:03:01;9.10;99.90
6581;DHT22;3324;50.796;7.228;2022-12-20T08:05:29;9.10;99.90
6581;DHT22;3324;50.796;7.228;2022-12-20T08:07:56;9.10;99.90
6581;DHT22;3324;50.796;7.228;2022-12-20T08:10:23;9.10;99.90
6581;DHT22;3324;50.796;7.228;2022-12-20T08:12:49;9.10;99.90
6581;DHT22;3324;50.796;7.228;2022-12-20T08:15:15;9.10;99.90
6581;DHT22;3324;50.796;7.228;2022-12-20T08:17:41;9.10;99.90
6581;DHT22;3324;50.796;7.228;2022-12-20T08:20:07;9.10;99.90
6581;DHT22;3324;50.796;7.228;2022-12-20T08:22:33;9.10;99.90
6581;DHT22;3324;50.796;7.228;2022-12-20T08:24:59;9.10;99.90
6581;DHT22;3324;50.796;7.228;2022-12-20T08:27:24;9.10;99.90
6581;DHT22;3324;50.796;7.228;2022-12-20T08:29:50;9.10;99.90
6581;DHT22;3324;50.796;7.228;2022-12-20T08:32:16;9.20;99.90
6581;DHT22;3324;50.796;7.228;2022-12-20T08:34:41;9.20;99.90
6581;DHT22;3324;50.796;7.228;2022-12-20T08:37:07;9.20;99.90
6581;DHT22;3324;50.796;7.228;2022-12-20T08:39:32;9.20;99.90
6581;DHT22;3324;50.796;7.228;2022-12-20T08:41:58;9.30;99.90
6581;DHT22;3324;50.796;7.228;2022-12-20T08:44:24;9.30;99.90
6581;DHT22;3324;50.796;7.228;2022-12-20T08:46:50;9.30;99.90
6581;DHT22;3324;50.796;7.228;2022-12-20T08:49:16;9.30;99.90
6581;DHT22;3324;50.796;7.228;2022-12-20T08:51:41;9.30;99.90
6581;DHT22;3324;50.796;7.228;2022-12-20T08:54:07;9.30;99.90
6581;DHT22;3324;50.796;7.228;2022-12-20T08:56:33;9.30;99.90
6581;DHT22;3324;50.796;7.228;2022-12-20T08:58:58;9.40;99.90
6581;DHT22;3324;50.796;7.228;2022-12-20T09:01:24;9.40;99.90
6581;DHT22;3324;50.796;7.228;2022-12-20T09:03:51;9.40;99.90
6581;DHT22;3324;50.796;7.228;2022-12-20T09:06:21;9.40;99.90
6581;DHT22;3324;50.796;7.228;2022-12-20T09:08:47;9.50;99.90
6581;DHT22;3324;50.796;7.228;2022-12-20T09:11:18;9.50;99.90
6581;DHT22;3324;50.796;7.228;2022-12-20T09:13:45;9.50;99.90
6581;DHT22;3324;50.796;7.228;2022-12-20T09:16:13;9.50;99.90
6581;DHT22;3324;50.796;7.228;2022-12-20T09:18:38;9.50;99.90
6581;DHT22;3324;50.796;7.228;2022-12-20T09:21:05;9.60;99.90
6581;DHT22;3324;50.796;7.228;2022-12-20T09:23:32;9.50;99.90
6581;DHT22;3324;50.796;7.228;2022-12-20T09:26:06;9.50;99.90
6581;DHT22;3324;50.796;7.228;2022-12-20T09:28:33;9.60;99.90
6581;DHT22;3324;50.796;7.228;2022-12-20T09:31:00;9.60;99.90
6581;DHT22;3324;50.796;7.228;2022-12-20T09:33:26;9.60;99.90
6581;DHT22;3324;50.796;7.228;2022-12-20T09:35:53;9.60;99.90
6581;DHT22;3324;50.796;7.228;2022-12-20T09:38:18;9.60;99.90
6581;DHT22;3324;50.796;7.228;2022-12-20T09:40:50;9.60;99.90
6581;DHT22;3324;50.796;7.228;2022-12-20T09:43:17;9.60;99.90
6581;DHT22;3324;50.796;7.228;2022-12-20T09:45:46;9.60;99.90
6581;DHT22;3324;50.796;7.228;2022-12-20T09:48:19;9.60;99.90
6581;DHT22;3324;50.796;7.228;2022-12-20T09:53:50;9.60;99.90
6581;DHT22;3324;50.796;7.228;2022-12-20T09:56:25;9.60;99.90
6581;DHT22;3324;50.796;7.228;2022-12-20T10:01:21;9.70;99.90
6581;DHT22;3324;50.796;7.228;2022-12-20T10:03:48;9.70;99.90
6581;DHT22;3324;50.796;7.228;2022-12-20T10:09:34;9.70;99.90
6581;DHT22;3324;50.796;7.228;2022-12-20T10:12:23;9.80;99.90
6581;DHT22;3324;50.796;7.228;2022-12-20T10:15:12;9.70;99.90
6581;DHT22;3324;50.796;7.228;2022-12-20T10:23:02;9.70;99.90
6581;DHT22;3324;50.796;7.228;2022-12-20T10:25:31;9.70;99.90
6581;DHT22;3324;50.796;7.228;2022-12-20T10:28:00;9.70;99.90
6581;DHT22;3324;50.796;7.228;2022-12-20T10:30:28;9.80;99.90
6581;DHT22;3324;50.796;7.228;2022-12-20T10:32:56;9.80;99.90
6581;DHT22;3324;50.796;7.228;2022-12-20T10:35:39;9.80;99.90
6581;DHT22;3324;50.796;7.228;2022-12-20T10:38:07;9.80;99.90
6581;DHT22;3324;50.796;7.228;2022-12-20T10:43:05;9.80;99.90
6581;DHT22;3324;50.796;7.228;2022-12-20T10:45:39;9.80;99.90
6581;DHT22;3324;50.796;7.228;2022-12-20T10:48:36;9.80;99.90
6581;DHT22;3324;50.796;7.228;2022-12-20T10:51:16;9.90;99.90
6581;DHT22;3324;50.796;7.228;2022-12-20T10:54:00;9.90;99.90
6581;DHT22;3324;50.796;7.228;2022-12-20T10:56:27;9.90;99.90
6581;DHT22;3324;50.796;7.228;2022-12-20T11:01:47;9.90;99.90
6581;DHT22;3324;50.796;7.228;2022-12-20T11:04:32;9.90;99.90
6581;DHT22;3324;50.796;7.228;2022-12-20T11:07:01;9.80;99.90
6581;DHT22;3324;50.796;7.228;2022-12-20T11:09:33;9.90;99.90
6581;DHT22;3324;50.796;7.228;2022-12-20T11:12:12;9.90;99.90
6581;DHT22;3324;50.796;7.228;2022-12-20T11:14:39;9.80;99.90
6581;DHT22;3324;50.796;7.228;2022-12-20T11:17:18;9.90;99.90
6581;DHT22;3324;50.796;7.228;2022-12-20T11:25:35;10.00;99.90
6581;DHT22;3324;50.796;7.228;2022-12-20T11:36:26;10.00;99.90
6581;DHT22;3324;50.796;7.228;2022-12-20T11:39:22;10.00;99.90
6581;DHT22;3324;50.796;7.228;2022-12-20T11:41:57;10.10;99.90
6581;DHT22;3324;50.796;7.228;2022-12-20T11:45:03;10.10;99.90
6581;DHT22;3324;50.796;7.228;2022-12-20T11:47:43;10.10;99.90
6581;DHT22;3324;50.796;7.228;2022-12-20T11:53:01;10.20;99.90
6581;DHT22;3324;50.796;7.228;2022-12-20T11:55:34;10.20;99.90
6581;DHT22;3324;50.796;7.228;2022-12-20T11:58:05;10.20;99.90
6581;DHT22;3324;50.796;7.228;2022-12-20T12:00:38;10.20;99.90
6581;DHT22;3324;50.796;7.228;2022-12-20T12:03:20;10.30;99.90
6581;DHT22;3324;50.796;7.228;2022-12-20T12:05:50;10.30;99.90
6581;DHT22;3324;50.796;7.228;2022-12-20T12:08:24;10.30;99.90
6581;DHT22;3324;50.796;7.228;2022-12-20T12:10:58;10.40;99.90
6581;DHT22;3324;50.796;7.228;2022-12-20T12:13:30;10.40;99.90
6581;DHT22;3324;50.796;7.228;2022-12-20T12:16:17;10.40;99.90
6581;DHT22;3324;50.796;7.228;2022-12-20T12:18:45;10.40;99.90
6581;DHT22;3324;50.796;7.228;2022-12-20T12:21:38;10.30;99.90
6581;DHT22;3324;50.796;7.228;2022-12-20T12:26:40;10.40;99.90
6581;DHT22;3324;50.796;7.228;2022-12-20T12:29:16;10.40;99.90
6581;DHT22;3324;50.796;7.228;2022-12-20T12:31:47;10.40;99.90
6581;DHT22;3324;50.796;7.228;2022-12-20T12:43:05;10.30;99.90
6581;DHT22;3324;50.796;7.228;2022-12-20T12:45:40;10.40;99.90
6581;DHT22;3324;50.796;7.228;2022-12-20T12:48:28;10.50;99.90
6581;DHT22;3324;50.796;7.228;2022-12-20T12:50:56;10.50;99.90
6581;DHT22;3324;50.796;7.228;2022-12-20T12:55:57;10.50;99.90
6581;DHT22;3324;50.796;7.228;2022-12-20T13:00:58;10.60;99.90
6581;DHT22;3324;50.796;7.228;2022-12-20T13:04:07;10.60;99.90
6581;DHT22;3324;50.796;7.228;2022-12-20T13:11:31;10.70;99.90
6581;DHT22;3324;50.796;7.228;2022-12-20T13:19:37;10.90;99.90
6581;DHT22;3324;50.796;7.228;2022-12-20T13:24:57;11.00;99.90
6581;DHT22;3324;50.796;7.228;2022-12-20T13:27:29;11.10;99.90
6581;DHT22;3324;50.796;7.228;2022-12-20T13:32:55;11.10;99.90
6581;DHT22;3324;50.796;7.228;2022-12-20T13:40:35;11.20;99.90
6581;DHT22;3324;50.796;7.228;2022-12-20T13:45:47;11.00;99.90
6581;DHT22;3324;50.796;7.228;2022-12-20T13:48:29;11.00;99.90
6581;DHT22;3324;50.796;7.228;2022-12-20T13:50:56;10.90;99.90
6581;DHT22;3324;50.796;7.228;2022-12-20T13:53:24;11.00;99.90
6581;DHT22;3324;50.796;7.228;2022-12-20T13:55:52;11.00;99.90
6581;DHT22;3324;50.796;7.228;2022-12-20T13:58:21;10.90;99.90
6581;DHT22;3324;50.796;7.228;2022-12-20T14:00:48;10.90;99.90
6581;DHT22;3324;50.796;7.228;2022-12-20T14:03:24;10.90;99.90
6581;DHT22;3324;50.796;7.228;2022-12-20T14:06:07;10.90;99.90
6581;DHT22;3324;50.796;7.228;2022-12-20T14:08:37;10.80;99.90
6581;DHT22;3324;50.796;7.228;2022-12-20T14:13:40;10.80;99.90
6581;DHT22;3324;50.796;7.228;2022-12-20T14:16:17;10.80;99.90
6581;DHT22;3324;50.796;7.228;2022-12-20T14:18:59;10.80;99.90
6581;DHT22;3324;50.796;7.228;2022-12-20T14:21:25;10.80;99.90
6581;DHT22;3324;50.796;7.228;2022-12-20T14:23:53;10.80;99.90
6581;DHT22;3324;50.796;7.228;2022-12-20T14:26:32;10.80;99.90
6581;DHT22;3324;50.796;7.228;2022-12-20T14:29:01;10.90;99.90
6581;DHT22;3324;50.796;7.228;2022-12-20T14:31:39;10.90;99.90
6581;DHT22;3324;50.796;7.228;2022-12-20T14:36:38;10.90;99.90
6581;DHT22;3324;50.796;7.228;2022-12-20T14:39:27;10.90;99.90
6581;DHT22;3324;50.796;7.228;2022-12-20T14:42:02;10.90;99.90
6581;DHT22;3324;50.796;7.228;2022-12-20T14:44:30;10.90;99.90
6581;DHT22;3324;50.796;7.228;2022-12-20T14:49:31;10.90;99.90
6581;DHT22;3324;50.796;7.228;2022-12-20T15:10:38;10.70;99.90
6581;DHT22;3324;50.796;7.228;2022-12-20T15:13:11;10.70;99.90
6581;DHT22;3324;50.796;7.228;2022-12-20T15:15:37;10.70;99.90
6581;DHT22;3324;50.796;7.228;2022-12-20T15:18:10;10.70;99.90
6581;DHT22;3324;50.796;7.228;2022-12-20T15:20:35;10.70;99.90
6581;DHT22;3324;50.796;7.228;2022-12-20T15:23:01;10.60;99.90
6581;DHT22;3324;50.796;7.228;2022-12-20T15:25:36;10.60;99.90
6581;DHT22;3324;50.796;7.228;2022-12-20T15:28:04;10.50;99.90
6581;DHT22;3324;50.796;7.228;2022-12-20T15:30:33;10.50;99.90
6581;DHT22;3324;50.796;7.228;2022-12-20T15:32:58;10.50;99.90
6581;DHT22;3324;50.796;7.228;2022-12-20T15:35:24;10.60;99.90
6581;DHT22;3324;50.796;7.228;2022-12-20T15:37:49;10.60;99.90
6581;DHT22;3324;50.796;7.228;2022-12-20T15:40:15;10.60;99.90
6581;DHT22;3324;50.796;7.228;2022-12-20T15:42:42;10.60;99.90
6581;DHT22;3324;50.796;7.228;2022-12-20T15:45:14;10.60;99.90
6581;DHT22;3324;50.796;7.228;2022-12-20T15:47:40;10.70;99.90
6581;DHT22;3324;50.796;7.228;2022-12-20T15:50:07;10.70;99.90
6581;DHT22;3324;50.796;7.228;2022-12-20T15:52:32;10.80;99.90
6581;DHT22;3324;50.796;7.228;2022-12-20T15:54:58;10.80;99.90
6581;DHT22;3324;50.796;7.228;2022-12-20T15:57:24;10.70;99.90
6581;DHT22;3324;50.796;7.228;2022-12-20T15:59:49;10.80;99.90
6581;DHT22;3324;50.796;7.228;2022-12-20T16:02:22;10.80;99.90
6581;DHT22;3324;50.796;7.228;2022-12-20T16:04:48;10.90;99.90
6581;DHT22;3324;50.796;7.228;2022-12-20T16:07:15;10.90;99.90
6581;DHT22;3324;50.796;7.228;2022-12-20T16:09:41;10.90;99.90
6581;DHT22;3324;50.796;7.228;2022-12-20T16:12:29;10.90;99.90
6581;DHT22;3324;50.796;7.228;2022-12-20T16:14:56;10.90;99.90
6581;DHT22;3324;50.796;7.228;2022-12-20T16:17:22;10.90;99.90
6581;DHT22;3324;50.796;7.228;2022-12-20T16:19:49;10.90;99.90
6581;DHT22;3324;50.796;7.228;2022-12-20T16:22:19;10.80;99.90
6581;DHT22;3324;50.796;7.228;2022-12-20T16:24:46;10.80;99.90
6581;DHT22;3324;50.796;7.228;2022-12-20T16:27:12;10.80;99.90
6581;DHT22;3324;50.796;7.228;2022-12-20T16:29:37;10.70;99.90
6581;DHT22;3324;50.796;7.228;2022-12-20T16:32:12;10.80;99.90
6581;DHT22;3324;50.796;7.228;2022-12-20T16:34:38;10.80;99.90
6581;DHT22;3324;50.796;7.228;2022-12-20T16:37:03;10.60;99.90
6581;DHT22;3324;50.796;7.228;2022-12-20T16:39:30;10.60;99.90
6581;DHT22;3324;50.796;7.228;2022-12-20T16:41:56;10.60;99.90
6581;DHT22;3324;50.796;7.228;2022-12-20T16:44:21;10.60;99.90
6581;DHT22;3324;50.796;7.228;2022-12-20T16:46:47;10.50;99.90
6581;DHT22;3324;50.796;7.228;2022-12-20T16:49:12;10.50;99.90
6581;DHT22;3324;50.796;7.228;2022-12-20T16:51:43;10.50;99.90
6581;DHT22;3324;50.796;7.228;2022-12-20T16:54:18;10.50;99.90
6581;DHT22;3324;50.796;7.228;2022-12-20T16:56:45;10.50;99.90
6581;DHT22;3324;50.796;7.228;2022-12-20T16:59:12;10.50;99.90
6581;DHT22;3324;50.796;7.228;2022-12-20T17:01:38;10.60;99.90
6581;DHT22;3324;50.796;7.228;2022-12-20T17:04:12;10.60;99.90
6581;DHT22;3324;50.796;7.228;2022-12-20T17:06:38;10.50;99.90
6581;DHT22;3324;50.796;7.228;2022-12-20T17:09:03;10.60;99.90
6581;DHT22;3324;50.796;7.228;2022-12-20T17:11:30;10.60;99.90
6581;DHT22;3324;50.796;7.228;2022-12-20T17:13:57;10.60;99.90
6581;DHT22;3324;50.796;7.228;2022-12-20T17:16:23;10.60;99.90
6581;DHT22;3324;50.796;7.228;2022-12-20T17:18:50;10.70;99.90
6581;DHT22;3324;50.796;7.228;2022-12-20T17:23:56;10.70;99.90
6581;DHT22;3324;50.796;7.228;2022-12-20T17:26:24;10.80;99.90
6581;DHT22;3324;50.796;7.228;2022-12-20T17:28:53;10.80;99.90
6581;DHT22;3324;50.796;7.228;2022-12-20T17:31:34;10.80;99.90
6581;DHT22;3324;50.796;7.228;2022-12-20T17:34:23;10.80;99.90
6581;DHT22;3324;50.796;7.228;2022-12-20T17:36:50;10.80;99.90
6581;DHT22;3324;50.796;7.228;2022-12-20T17:39:16;10.70;99.90
6581;DHT22;3324;50.796;7.228;2022-12-20T17:41:43;10.70;99.90
6581;DHT22;3324;50.796;7.228;2022-12-20T17:44:17;10.70;99.90
6581;DHT22;3324;50.796;7.228;2022-12-20T17:46:43;10.80;99.90
6581;DHT22;3324;50.796;7.228;2022-12-20T17:49:08;10.70;99.90
6581;DHT22;3324;50.796;7.228;2022-12-20T17:51:34;10.80;99.90
6581;DHT22;3324;50.796;7.228;2022-12-20T17:54:00;10.80;99.90
6581;DHT22;3324;50.796;7.228;2022-12-20T17:56:32;10.80;99.90
6581;DHT22;3324;50.796;7.228;2022-12-20T17:58:59;10.80;99.90
6581;DHT22;3324;50.796;7.228;2022-12-20T18:01:33;10.70;99.90
6581;DHT22;3324;50.796;7.228;2022-12-20T18:04:00;10.70;99.90
6581;DHT22;3324;50.796;7.228;2022-12-20T18:06:27;10.80;99.90
6581;DHT22;3324;50.796;7.228;2022-12-20T18:08:56;10.80;99.90
6581;DHT22;3324;50.796;7.228;2022-12-20T18:11:23;10.80;99.90
6581;DHT22;3324;50.796;7.228;2022-12-20T18:13:51;10.80;99.90
6581;DHT22;3324;50.796;7.228;2022-12-20T18:16:20;10.80;99.90
6581;DHT22;3324;50.796;7.228;2022-12-20T18:18:47;10.70;99.90
6581;DHT22;3324;50.796;7.228;2022-12-20T18:21:14;10.70;99.90
6581;DHT22;3324;50.796;7.228;2022-12-20T18:23:41;10.70;99.90
6581;DHT22;3324;50.796;7.228;2022-12-20T18:26:19;10.80;99.90